Time;durP1;ratioP1;P1;durP2;ratioP2;P2;SDS_P1;SDS_P2;PMS_P1;PMS_P2;Temp;Humidity;BMP_temperature;BMP_pressure;BME280_temperature;BME280_humidity;BME280_pressure;Samples;Min_cycle;Max_cycle;Signal;HPM_P1;HPM_P2
2022/05/10 00:00:21;;;;;;;9.15;2.60;;;;;;;33.81;8.56;100787.00;4956738;28;20145;-59
2022/05/10 00:02:53;;;;;;;11.93;3.00;;;;;;;32.18;9.40;100798.50;4956985;28;20055;-59
2022/05/10 00:05:25;;;;;;;14.30;2.97;;;;;;;32.68;9.74;100782.09;4964527;28;20039;-59
2022/05/10 00:07:53;;;;;;;18.23;3.25;;;;;;;32.26;9.65;100794.41;4963572;28;20399;-59
2022/05/10 00:10:20;;;;;;;9.57;2.90;;;;;;;32.62;10.14;100780.13;4972428;28;20073;-59
2022/05/10 00:12:49;;;;;;;9.95;3.35;;;;;;;32.64;9.75;100792.56;4956235;28;20366;-60
2022/05/10 00:15:16;;;;;;;14.13;3.45;;;;;;;31.55;10.88;100812.38;4957990;28;20039;-59
2022/05/10 00:17:43;;;;;;;17.08;3.22;;;;;;;31.79;10.98;100787.47;4957738;28;20027;-59
2022/05/10 00:20:14;;;;;;;12.93;3.20;;;;;;;31.89;10.84;100777.34;4970689;28;20030;-58
2022/05/10 00:22:41;;;;;;;15.68;3.38;;;;;;;32.37;9.61;100802.81;4959539;28;20057;-58
2022/05/10 00:25:11;;;;;;;13.80;3.35;;;;;;;31.73;10.87;100787.06;4969173;28;20024;-59
2022/05/10 00:27:38;;;;;;;12.73;3.13;;;;;;;30.95;10.84;100795.63;4966614;28;20035;-58
2022/05/10 00:30:06;;;;;;;19.08;3.85;;;;;;;30.74;11.16;100788.03;4961640;28;20090;-59
2022/05/10 00:32:34;;;;;;;13.48;3.25;;;;;;;31.17;10.62;100790.78;4957198;28;20031;-58
2022/05/10 00:35:02;;;;;;;14.85;3.90;;;;;;;31.59;10.25;100784.25;4955398;28;20078;-59
2022/05/10 00:37:30;;;;;;;15.38;3.80;;;;;;;30.55;10.67;100785.56;4956341;28;20613;-59
2022/05/10 00:39:56;;;;;;;12.63;2.92;;;;;;;30.73;10.94;100811.66;4956218;28;20031;-58
2022/05/10 00:42:56;;;;;;;11.25;3.15;;;;;;;30.69;10.62;100779.97;4967678;28;20038;-58
2022/05/10 00:45:47;;;;;;;15.43;3.17;;;;;;;30.50;10.85;100789.56;4898333;28;20048;-59
2022/05/10 00:48:28;;;;;;;13.48;3.65;;;;;;;30.83;10.88;100787.59;4970647;28;20038;-59
2022/05/10 00:51:16;;;;;;;15.93;3.50;;;;;;;30.43;11.22;100795.16;4940171;28;20122;-58
2022/05/10 00:54:18;;;;;;;13.55;3.42;;;;;;;29.97;11.43;100798.63;4954838;28;20050;-58
2022/05/10 00:56:55;;;;;;;17.23;3.80;;;;;;;30.37;11.50;100791.16;4944965;28;20047;-59
2022/05/10 00:59:42;;;;;;;10.18;3.72;;;;;;;30.26;11.32;100793.94;4929687;29;20039;-59
2022/05/10 01:02:40;;;;;;;14.80;3.55;;;;;;;30.24;11.62;100801.94;4940952;28;20052;-59
2022/05/10 01:05:40;;;;;;;15.45;3.63;;;;;;;30.16;11.76;100789.09;4940829;28;20051;-59
2022/05/10 01:08:30;;;;;;;16.45;3.72;;;;;;;29.90;11.97;100803.41;4933684;29;20070;-59
2022/05/10 01:11:21;;;;;;;12.57;3.22;;;;;;;30.05;11.94;100796.69;4945336;28;20031;-59
2022/05/10 01:13:57;;;;;;;19.60;4.03;;;;;;;29.67;12.56;100801.72;4943436;28;20043;-58
2022/05/10 01:16:25;;;;;;;14.15;3.33;;;;;;;29.45;12.36;100806.41;4945148;28;20043;-59
2022/05/10 01:18:53;;;;;;;12.25;3.40;;;;;;;28.82;13.30;100806.69;4948343;28;20123;-58
2022/05/10 01:21:40;;;;;;;14.13;3.90;;;;;;;28.61;13.43;100800.91;4944654;28;20039;-59
2022/05/10 01:24:22;;;;;;;25.67;4.40;;;;;;;28.72;12.97;100807.38;4947549;28;20062;-59
2022/05/10 01:26:58;;;;;;;13.85;3.70;;;;;;;28.68;12.72;100803.75;4949976;28;20095;-58
2022/05/10 01:29:37;;;;;;;17.70;4.25;;;;;;;28.51;12.99;100794.81;4942274;28;20066;-59
2022/05/10 01:34:59;;;;;;;27.17;3.80;;;;;;;28.24;12.97;100819.28;4943199;28;20043;-59
2022/05/10 01:37:31;;;;;;;28.95;4.32;;;;;;;28.25;12.67;100797.72;4948033;28;20035;-59
2022/05/10 01:40:08;;;;;;;16.35;4.10;;;;;;;28.22;12.40;100784.53;4943587;28;20046;-59
2022/05/10 01:42:43;;;;;;;18.27;3.90;;;;;;;27.81;12.78;100790.03;4943969;28;20516;-60
2022/05/10 01:45:27;;;;;;;23.25;3.75;;;;;;;27.81;12.34;100787.25;4952864;28;20198;-60
2022/05/10 01:48:03;;;;;;;18.75;3.92;;;;;;;27.52;12.72;100786.06;4947110;28;20210;-59
2022/05/10 01:50:58;;;;;;;24.48;3.97;;;;;;;27.68;12.67;100789.50;4945160;28;20494;-59
2022/05/10 01:53:34;;;;;;;18.98;3.65;;;;;;;27.61;12.96;100788.53;4950250;28;20454;-59
2022/05/10 01:56:06;;;;;;;20.35;3.83;;;;;;;27.24;12.88;100794.00;4940807;28;20094;-60
2022/05/10 01:58:38;;;;;;;18.52;3.88;;;;;;;27.06;13.08;100785.38;4950271;28;20434;-59
2022/05/10 02:01:09;;;;;;;19.50;3.95;;;;;;;27.03;13.12;100780.56;4947364;28;20102;-59
2022/05/10 02:04:17;;;;;;;13.13;3.72;;;;;;;26.84;13.29;100795.38;4944112;28;20031;-58
2022/05/10 02:06:58;;;;;;;30.02;4.40;;;;;;;26.62;13.52;100785.84;4936155;28;20501;-58
2022/05/10 02:09:24;;;;;;;22.35;4.45;;;;;;;26.33;13.96;100787.28;4947668;28;20044;-59
2022/05/10 02:12:19;;;;;;;23.05;4.32;;;;;;;26.18;14.30;100791.75;4924817;29;20123;-59
2022/05/10 02:15:23;;;;;;;24.98;4.43;;;;;;;25.98;14.40;100792.97;4941322;28;20047;-59
2022/05/10 02:18:07;;;;;;;21.65;4.35;;;;;;;25.78;14.30;100799.72;4942107;28;20115;-61
2022/05/10 02:20:49;;;;;;;19.25;4.88;;;;;;;25.68;14.55;100803.91;4944282;28;20040;-59
2022/05/10 02:23:21;;;;;;;19.83;4.53;;;;;;;25.64;15.07;100810.50;4941674;28;20090;-59
2022/05/10 02:25:54;;;;;;;21.70;4.93;;;;;;;25.36;15.59;100805.13;4945261;28;20128;-61
2022/05/10 02:28:27;;;;;;;23.50;4.85;;;;;;;25.15;16.17;100827.69;4934406;28;20537;-59
2022/05/10 02:30:58;;;;;;;27.45;4.88;;;;;;;24.90;16.55;100840.94;4967786;28;20042;-60
2022/05/10 02:33:27;;;;;;;32.53;5.15;;;;;;;24.85;17.12;100821.75;4953696;28;20035;-59
2022/05/10 02:35:57;;;;;;;24.83;4.95;;;;;;;24.64;17.24;100833.13;4954483;28;20158;-60
2022/05/10 02:38:33;;;;;;;23.60;5.65;;;;;;;24.59;17.36;100833.38;4959948;28;20553;-60
2022/05/10 02:41:07;;;;;;;22.13;5.00;;;;;;;24.50;17.60;100841.91;4938956;29;20062;-60
2022/05/10 02:43:49;;;;;;;18.55;5.13;;;;;;;24.44;17.63;100842.53;4954491;28;20490;-60
2022/05/10 02:46:17;;;;;;;28.73;5.70;;;;;;;24.25;18.45;100832.88;4963838;28;20046;-61
2022/05/10 02:48:47;;;;;;;25.95;7.88;;;;;;;24.19;19.32;100842.59;4969363;28;20119;-59
2022/05/10 02:51:14;;;;;;;30.70;6.25;;;;;;;24.09;20.26;100843.13;4960464;28;20058;-59
2022/05/10 02:53:41;;;;;;;18.60;6.18;;;;;;;23.94;21.10;100841.09;4961569;28;20031;-58
2022/05/10 02:56:14;;;;;;;20.58;6.45;;;;;;;23.76;21.76;100841.38;4954847;28;20188;-60
2022/05/10 02:59:11;;;;;;;24.05;6.70;;;;;;;23.57;22.47;100860.59;4957559;28;20409;-61
2022/05/10 03:01:46;;;;;;;44.97;7.78;;;;;;;23.46;22.73;100851.91;4961643;28;20047;-60
2022/05/10 03:04:14;;;;;;;31.08;7.10;;;;;;;23.33;23.10;100850.28;4936049;29;20042;-60
2022/05/10 03:06:44;;;;;;;31.30;6.90;;;;;;;23.29;23.25;100854.91;4953447;28;20082;-60
2022/05/10 03:09:11;;;;;;;34.13;6.43;;;;;;;23.25;23.07;100855.97;4953706;29;20110;-59
2022/05/10 03:11:38;;;;;;;47.97;7.85;;;;;;;23.18;23.54;100871.22;4952340;28;20058;-61
2022/05/10 03:14:07;;;;;;;36.90;8.07;;;;;;;23.13;23.36;100867.84;4953485;28;20078;-60
2022/05/10 03:16:35;;;;;;;43.05;5.95;;;;;;;23.02;23.70;100880.56;4957645;28;20542;-62
2022/05/10 03:19:03;;;;;;;34.28;7.03;;;;;;;22.98;23.87;100888.78;4956638;29;20035;-59
2022/05/10 03:21:29;;;;;;;30.77;5.32;;;;;;;22.87;24.00;100890.34;4956593;28;20610;-59
2022/05/10 03:23:56;;;;;;;37.83;8.00;;;;;;;22.82;24.10;100890.59;4956778;28;20598;-59
2022/05/10 03:26:26;;;;;;;41.17;6.82;;;;;;;22.76;24.44;100892.72;4955856;29;20469;-59
2022/05/10 03:28:55;;;;;;;35.97;6.30;;;;;;;22.69;24.85;100908.28;4954855;28;20039;-60
2022/05/10 03:31:25;;;;;;;34.85;6.32;;;;;;;22.64;24.92;100905.75;4956835;29;20034;-60
2022/05/10 03:36:39;;;;;;;25.70;6.15;;;;;;;22.51;25.58;100922.31;4954301;29;20062;-59
2022/05/10 03:39:08;;;;;;;28.80;6.00;;;;;;;22.35;25.72;100915.78;4956276;28;20485;-60
2022/05/10 03:41:34;;;;;;;27.92;7.97;;;;;;;22.27;26.46;100920.25;4956290;28;20389;-60
2022/05/10 03:44:01;;;;;;;24.52;7.80;;;;;;;22.21;26.46;100927.13;4955826;28;20066;-60
2022/05/10 03:46:28;;;;;;;22.38;5.57;;;;;;;22.19;26.61;100923.91;4957035;28;20081;-60
2022/05/10 03:48:55;;;;;;;29.85;5.45;;;;;;;22.22;26.66;100928.75;4955899;29;20054;-61
2022/05/10 03:51:23;;;;;;;21.83;5.72;;;;;;;22.15;26.79;100928.50;4939153;29;20114;-61
2022/05/10 03:53:50;;;;;;;26.58;6.70;;;;;;;22.13;26.87;100930.00;4939742;29;20118;-60
2022/05/10 03:56:16;;;;;;;27.02;5.57;;;;;;;22.01;27.47;100936.22;4956244;29;20027;-59
2022/05/10 03:58:43;;;;;;;39.53;12.85;;;;;;;21.95;27.14;100940.34;4956538;29;20094;-59
2022/05/10 04:01:12;;;;;;;26.08;6.40;;;;;;;21.82;27.56;100942.22;4956070;28;20098;-60
2022/05/10 04:03:39;;;;;;;47.22;12.18;;;;;;;21.81;27.36;100946.13;4956678;29;20098;-59
2022/05/10 04:06:06;;;;;;;33.75;8.23;;;;;;;21.75;27.19;100941.94;4957030;29;20032;-61
2022/05/10 04:08:33;;;;;;;38.50;14.52;;;;;;;21.65;27.33;100953.38;4957085;28;20058;-59
2022/05/10 04:11:08;;;;;;;39.22;8.25;;;;;;;21.62;27.38;100954.03;4957471;28;20058;-61
2022/05/10 04:13:35;;;;;;;28.75;4.63;;;;;;;21.46;27.80;100961.28;4957619;28;20071;-58
2022/05/10 04:16:01;;;;;;;28.70;5.30;;;;;;;21.34;27.83;100964.72;4957795;29;20039;-60
2022/05/10 04:18:28;;;;;;;23.70;4.78;;;;;;;21.32;27.62;100965.06;4956286;29;20065;-61
2022/05/10 04:20:55;;;;;;;23.88;4.30;;;;;;;21.23;28.06;100969.00;4956382;29;20027;-61
2022/05/10 04:23:22;;;;;;;28.13;4.47;;;;;;;21.13;28.35;100975.66;4955607;29;20421;-61
2022/05/10 04:25:49;;;;;;;27.20;5.45;;;;;;;21.06;28.27;100975.38;4937465;29;20081;-60
2022/05/10 04:28:16;;;;;;;27.48;9.73;;;;;;;21.06;28.23;100986.44;4938176;29;20079;-59
2022/05/10 04:30:44;;;;;;;26.50;8.75;;;;;;;21.03;28.49;100982.38;4950991;28;20114;-61
2022/05/10 04:33:14;;;;;;;25.05;6.15;;;;;;;20.92;29.05;100983.84;4938608;29;20031;-60
2022/05/10 04:35:41;;;;;;;28.00;7.80;;;;;;;20.80;29.15;100987.28;4955842;29;20521;-61
2022/05/10 04:38:08;;;;;;;23.67;5.35;;;;;;;20.85;28.79;100988.25;4955442;28;20035;-61
2022/05/10 04:43:21;;;;;;;17.30;5.82;;;;;;;20.80;28.81;100995.56;4955472;29;20067;-60
2022/05/10 04:45:50;;;;;;;21.20;5.25;;;;;;;20.84;28.34;100994.94;4956084;28;20034;-60
2022/05/10 04:48:17;;;;;;;24.23;8.65;;;;;;;20.77;28.75;100989.88;4975108;28;20086;-61
2022/05/10 04:50:44;;;;;;;25.58;7.43;;;;;;;20.76;28.62;100989.06;4958073;28;20027;-62
2022/05/10 04:53:11;;;;;;;21.88;4.25;;;;;;;20.81;28.00;100997.19;4974598;28;20587;-61
2022/05/10 04:55:38;;;;;;;19.33;5.07;;;;;;;20.84;27.84;100994.94;4963522;28;20208;-61
2022/05/10 04:58:05;;;;;;;25.50;5.50;;;;;;;20.78;27.61;100999.78;4954874;29;20062;-59
2022/05/10 05:00:33;;;;;;;25.75;4.47;;;;;;;20.66;27.75;101008.75;4937724;28;20067;-58
2022/05/10 05:03:00;;;;;;;20.17;4.35;;;;;;;20.59;27.45;101011.16;4954716;29;20071;-61
2022/05/10 05:05:27;;;;;;;18.35;4.57;;;;;;;20.50;27.08;101025.00;4921926;29;20057;-60
2022/05/10 05:07:54;;;;;;;25.75;4.05;;;;;;;20.46;26.52;101024.00;4952454;29;20050;-60
2022/05/10 05:10:20;;;;;;;27.00;4.70;;;;;;;20.37;26.19;101019.59;4954599;29;20027;-62
2022/05/10 05:12:47;;;;;;;20.60;4.85;;;;;;;20.31;25.97;101024.47;4954358;28;20482;-60
2022/05/10 05:15:14;;;;;;;29.20;4.53;;;;;;;20.26;25.50;101023.78;4953095;29;20394;-60
2022/05/10 05:17:41;;;;;;;25.08;5.65;;;;;;;20.20;25.52;101023.94;4954174;28;20058;-60
2022/05/10 05:20:09;;;;;;;21.30;5.28;;;;;;;20.11;25.62;101027.84;4954283;29;20031;-60
2022/05/10 05:22:36;;;;;;;25.00;4.90;;;;;;;20.10;25.52;101029.75;4952199;29;20524;-61
2022/05/10 05:25:04;;;;;;;21.52;5.10;;;;;;;20.04;25.55;101039.31;4954035;28;20027;-59
2022/05/10 05:27:32;;;;;;;25.35;4.15;;;;;;;19.96;25.86;101048.41;4954435;28;20042;-58
2022/05/10 05:29:58;;;;;;;17.48;3.78;;;;;;;19.91;25.67;101045.78;4954411;28;20109;-60
2022/05/10 05:32:29;;;;;;;28.45;3.97;;;;;;;19.91;25.48;101045.78;4936756;29;20031;-61
2022/05/10 05:34:58;;;;;;;24.48;6.85;;;;;;;19.97;25.29;101047.28;4953913;29;20062;-59
2022/05/10 05:37:34;;;;;;;24.35;5.22;;;;;;;19.92;24.61;101050.97;4953385;28;20489;-60
2022/05/10 05:40:05;;;;;;;21.13;3.55;;;;;;;20.00;24.44;101037.53;4954412;29;20031;-60
2022/05/10 05:42:32;;;;;;;24.45;3.95;;;;;;;20.02;23.90;101033.31;4952023;29;20401;-60
2022/05/10 05:44:59;;;;;;;26.38;3.95;;;;;;;20.01;23.79;101039.97;4954137;28;20026;-60
2022/05/10 05:47:26;;;;;;;15.85;3.13;;;;;;;19.98;23.50;101037.03;4955042;28;20042;-60
2022/05/10 05:49:53;;;;;;;16.23;2.92;;;;;;;19.89;23.40;101051.59;4953869;29;20066;-59
2022/05/10 05:52:22;;;;;;;19.30;3.47;;;;;;;19.94;23.35;101055.38;4954564;28;20042;-59
2022/05/10 05:54:53;;;;;;;20.48;3.25;;;;;;;19.85;23.24;101050.63;4954149;28;20050;-60
2022/05/10 05:57:21;;;;;;;17.73;2.92;;;;;;;19.94;22.85;101066.41;4954745;29;20046;-60
2022/05/10 05:59:48;;;;;;;15.93;3.88;;;;;;;19.93;22.35;101060.06;4954054;29;20548;-61
2022/05/10 06:02:18;;;;;;;12.82;3.00;;;;;;;19.95;21.84;101055.06;4953209;29;20540;-60
2022/05/10 06:04:45;;;;;;;19.08;3.42;;;;;;;20.02;21.13;101052.63;4954372;29;20031;-61
2022/05/10 06:07:13;;;;;;;19.98;3.10;;;;;;;19.98;20.74;101059.94;4954401;28;20070;-60
2022/05/10 06:09:42;;;;;;;17.92;3.33;;;;;;;19.98;20.82;101046.13;4954084;28;20063;-62
2022/05/10 06:12:10;;;;;;;15.82;2.90;;;;;;;20.06;19.90;101048.09;4936873;29;20504;-60
2022/05/10 06:14:37;;;;;;;13.85;3.08;;;;;;;20.17;19.31;101060.47;4953103;29;20430;-62
2022/05/10 06:17:05;;;;;;;16.60;2.80;;;;;;;20.14;19.26;101058.34;4962842;28;20034;-60
2022/05/10 06:19:34;;;;;;;21.10;2.53;;;;;;;20.08;19.47;101070.66;4960753;28;20036;-60
2022/05/10 06:22:01;;;;;;;20.85;2.70;;;;;;;20.01;19.48;101062.03;4968982;28;20045;-59
2022/05/10 06:24:28;;;;;;;9.55;2.47;;;;;;;19.90;19.99;101060.69;4958095;28;20026;-62
2022/05/10 06:26:55;;;;;;;16.15;2.83;;;;;;;19.95;19.39;101068.03;4964466;28;20035;-62
2022/05/10 06:29:21;;;;;;;15.73;2.63;;;;;;;19.92;19.07;101063.94;4959410;28;20047;-62
2022/05/10 06:31:49;;;;;;;14.85;2.45;;;;;;;19.86;19.37;101067.97;4955812;28;20409;-61
2022/05/10 06:34:17;;;;;;;21.42;2.95;;;;;;;19.86;18.75;101073.50;4957452;28;20027;-61
2022/05/10 06:36:44;;;;;;;20.00;2.70;;;;;;;19.86;18.81;101076.25;4954012;28;20121;-60
2022/05/10 06:39:11;;;;;;;13.70;2.80;;;;;;;19.85;18.41;101066.34;4952908;28;20042;-59
2022/05/10 06:41:38;;;;;;;9.07;2.35;;;;;;;19.83;18.60;101071.38;4938063;29;20567;-62
2022/05/10 06:44:06;;;;;;;16.23;2.90;;;;;;;19.70;18.81;101080.56;4957172;28;20511;-60
2022/05/10 06:46:34;;;;;;;13.38;2.42;;;;;;;19.64;19.11;101084.59;4961676;28;20034;-60
2022/05/10 06:49:04;;;;;;;10.85;2.50;;;;;;;19.57;19.12;101088.63;4939239;29;20022;-60
2022/05/10 06:51:32;;;;;;;9.18;2.22;;;;;;;19.39;19.50;101095.16;4951821;28;20038;-61
2022/05/10 06:54:00;;;;;;;6.60;2.17;;;;;;;19.40;19.33;101099.53;4970979;28;20435;-61
2022/05/10 06:56:26;;;;;;;12.73;2.35;;;;;;;19.35;19.11;101091.38;4967640;28;20362;-60
2022/05/10 06:58:53;;;;;;;13.10;2.13;;;;;;;19.36;18.79;101090.25;4967275;28;20457;-59
2022/05/10 07:01:20;;;;;;;11.40;4.10;;;;;;;19.34;18.29;101098.00;4969675;28;20053;-62
2022/05/10 07:03:49;;;;;;;8.85;1.95;;;;;;;19.29;18.68;101098.16;4959675;28;20039;-60
2022/05/10 07:06:19;;;;;;;13.70;2.92;;;;;;;19.21;18.61;101107.16;4971900;28;20028;-60
2022/05/10 07:08:45;;;;;;;11.02;2.95;;;;;;;19.27;18.11;101108.69;4965244;28;20075;-60
2022/05/10 07:11:13;;;;;;;6.40;2.00;;;;;;;19.26;17.65;101104.28;4964655;28;20035;-61
2022/05/10 07:13:40;;;;;;;12.68;2.17;;;;;;;19.21;17.22;101109.91;4958000;28;20059;-61
2022/05/10 07:16:07;;;;;;;8.98;2.38;;;;;;;19.14;17.43;101115.06;4957415;28;20034;-60
2022/05/10 07:18:34;;;;;;;9.57;2.08;;;;;;;19.32;16.36;101111.28;4940484;29;20023;-60
2022/05/10 07:21:02;;;;;;;10.35;2.47;;;;;;;19.41;16.00;101103.91;4966498;28;20034;-59
2022/05/10 07:23:31;;;;;;;12.65;2.63;;;;;;;19.39;15.38;101097.91;4962121;28;20032;-59
2022/05/10 07:25:58;;;;;;;16.35;2.85;;;;;;;19.47;15.41;101088.84;4969572;28;20062;-60
2022/05/10 07:28:29;;;;;;;15.82;2.80;;;;;;;19.51;14.99;101111.91;4966207;28;20034;-60
2022/05/10 07:30:59;;;;;;;9.07;2.28;;;;;;;19.45;15.22;101102.16;4967223;28;20035;-60
2022/05/10 07:33:27;;;;;;;9.95;3.00;;;;;;;19.38;14.93;101101.75;4959089;28;20509;-60
2022/05/10 07:38:41;;;;;;;6.18;2.10;;;;;;;19.39;14.75;101095.16;4963530;28;20031;-60
2022/05/10 07:41:07;;;;;;;12.60;2.38;;;;;;;19.48;14.36;101096.00;4964596;28;20473;-61
2022/05/10 07:43:37;;;;;;;10.50;2.53;;;;;;;19.36;14.45;101095.75;4971539;28;20386;-60
2022/05/10 07:46:05;;;;;;;10.77;2.15;;;;;;;19.46;14.27;101095.50;4960478;28;20023;-60
2022/05/10 07:48:32;;;;;;;7.90;2.10;;;;;;;19.53;13.66;101117.91;4938399;29;20050;-60
2022/05/10 07:51:01;;;;;;;7.95;2.00;;;;;;;19.37;13.70;101108.41;4942544;29;20147;-59
2022/05/10 07:53:31;;;;;;;8.85;2.10;;;;;;;19.54;13.56;101102.22;4957555;29;20035;-59
2022/05/10 07:56:00;;;;;;;12.73;2.60;;;;;;;19.34;13.37;101114.53;4957520;29;20047;-59
2022/05/10 07:58:26;;;;;;;7.68;2.10;;;;;;;19.60;12.33;101100.97;4957606;29;20032;-59
2022/05/10 08:00:53;;;;;;;8.52;1.85;;;;;;;19.49;13.03;101108.66;4956481;28;20078;-59
2022/05/10 08:03:22;;;;;;;9.85;1.90;;;;;;;19.55;12.82;101101.91;4957377;28;20091;-60
2022/05/10 08:05:49;;;;;;;10.93;2.15;;;;;;;19.48;12.81;101103.44;4957696;29;20067;-59
2022/05/10 08:08:19;;;;;;;11.38;2.38;;;;;;;19.48;12.37;101100.69;4957322;28;20031;-59
2022/05/10 08:10:47;;;;;;;10.90;2.85;;;;;;;19.49;12.34;101107.84;4957247;29;20130;-59
2022/05/10 08:13:18;;;;;;;11.02;2.50;;;;;;;19.53;12.38;101101.38;4957047;29;20047;-59
2022/05/10 08:15:45;;;;;;;10.25;2.40;;;;;;;19.52;12.13;101110.78;4957043;29;20039;-57
2022/05/10 08:18:12;;;;;;;11.50;2.40;;;;;;;19.46;12.43;101101.00;4972204;28;20023;-58
2022/05/10 08:20:41;;;;;;;9.18;2.20;;;;;;;19.43;11.81;101112.69;4976222;28;20034;-58
2022/05/10 08:23:09;;;;;;;9.05;2.22;;;;;;;19.52;11.93;101118.22;4976213;28;20026;-57
2022/05/10 08:25:36;;;;;;;11.43;2.00;;;;;;;19.47;11.91;101110.91;4976284;28;20457;-58
2022/05/10 08:28:03;;;;;;;12.80;2.03;;;;;;;19.46;11.91;101116.75;4976220;28;20046;-58
2022/05/10 08:30:30;;;;;;;3.80;1.50;;;;;;;19.57;11.74;101110.69;4976258;28;20098;-58
2022/05/10 08:32:57;;;;;;;9.57;1.88;;;;;;;19.67;11.70;101111.53;4976132;28;20505;-58
2022/05/10 08:35:23;;;;;;;6.40;1.88;;;;;;;19.58;11.89;101108.75;4976244;28;20497;-59
2022/05/10 08:37:50;;;;;;;11.13;1.60;;;;;;;19.53;12.11;101106.88;4977035;28;20026;-59
2022/05/10 08:40:38;;;;;;;3.58;1.30;;;;;;;19.63;12.06;101110.56;4976999;28;20062;-59
2022/05/10 08:43:10;;;;;;;5.85;1.60;;;;;;;19.64;12.50;101114.94;4976663;28;20090;-58
2022/05/10 08:45:41;;;;;;;6.18;1.60;;;;;;;19.58;12.44;101109.56;4975978;28;20038;-59
2022/05/10 08:48:08;;;;;;;4.72;1.42;;;;;;;19.59;12.59;101121.41;4962232;28;20039;-59
2022/05/10 08:50:36;;;;;;;5.53;1.77;;;;;;;19.52;12.46;101107.19;4956532;29;20098;-59
2022/05/10 08:53:07;;;;;;;4.93;1.60;;;;;;;19.64;12.75;101112.19;4956407;29;20494;-58
2022/05/10 08:55:41;;;;;;;7.75;2.25;;;;;;;19.56;13.08;101111.78;4956184;29;20042;-59
2022/05/10 08:58:37;;;;;;;6.10;1.98;;;;;;;19.60;13.45;101107.28;4937263;29;20035;-58
2022/05/10 09:01:07;;;;;;;;;;;;;;;19.51;13.42;101114.66;4937297;29;20095;-58
2022/05/10 09:03:46;;;;;;;6.32;1.80;;;;;;;19.64;13.25;101106.66;4937170;29;19919;-59
2022/05/10 09:06:34;;;;;;;12.65;2.55;;;;;;;19.61;13.58;101108.94;4937014;29;20435;-58
2022/05/10 09:09:27;;;;;;;14.75;2.28;;;;;;;19.76;13.04;101120.69;4937271;29;20043;-59
2022/05/10 09:12:09;;;;;;;12.48;2.35;;;;;;;19.85;12.88;101121.53;4936009;29;20494;-59
2022/05/10 09:14:49;;;;;;;11.40;2.55;;;;;;;19.89;12.76;101103.19;4937057;29;20114;-58
2022/05/10 09:17:19;;;;;;;15.25;2.00;;;;;;;19.94;12.94;101113.31;4951911;28;20417;-58
2022/05/10 09:19:46;;;;;;;11.25;1.88;;;;;;;19.97;12.62;101116.22;4975374;28;20030;-59
2022/05/10 09:22:16;;;;;;;12.15;1.80;;;;;;;20.04;13.08;101104.72;4974812;28;20384;-59
2022/05/10 09:24:53;;;;;;;10.40;2.17;;;;;;;19.99;12.88;101115.91;4974437;28;20086;-58
2022/05/10 09:27:25;;;;;;;11.93;2.03;;;;;;;20.08;12.79;101106.53;4975074;28;20035;-58
2022/05/10 09:29:53;;;;;;;14.07;2.10;;;;;;;20.07;12.86;101104.91;4974949;28;20039;-58
2022/05/10 09:35:19;;;;;;;15.30;1.95;;;;;;;20.16;12.86;101107.69;4974800;28;20030;-58
2022/05/10 09:37:49;;;;;;;9.30;2.00;;;;;;;19.87;13.67;101106.28;4974993;28;20054;-58
2022/05/10 09:40:26;;;;;;;10.13;1.90;;;;;;;19.67;14.09;101100.50;4957784;28;20031;-58
2022/05/10 09:43:10;;;;;;;16.33;2.25;;;;;;;19.61;13.91;101114.44;4974772;28;20031;-58
2022/05/10 09:45:38;;;;;;;15.75;2.65;;;;;;;19.46;14.21;101114.81;4974904;28;20403;-58
2022/05/10 09:48:19;;;;;;;14.30;2.58;;;;;;;19.33;13.99;101118.44;4965563;28;20470;-58
2022/05/10 09:50:50;;;;;;;17.00;3.10;;;;;;;19.19;14.27;101123.19;4955320;29;20122;-58
2022/05/10 09:53:20;;;;;;;19.08;2.95;;;;;;;19.11;14.55;101127.50;4955436;29;20036;-58
2022/05/10 09:55:58;;;;;;;14.98;2.65;;;;;;;19.09;14.67;101126.19;4955349;29;20051;-58
2022/05/10 09:58:29;;;;;;;12.75;2.40;;;;;;;19.06;14.87;101130.41;4938362;29;20031;-58
2022/05/10 10:00:59;;;;;;;16.90;2.60;;;;;;;19.07;14.67;101128.47;4955321;29;20047;-58
2022/05/10 10:03:29;;;;;;;17.17;3.22;;;;;;;19.15;14.51;101130.44;4955342;29;20095;-58
2022/05/10 10:06:17;;;;;;;22.58;3.38;;;;;;;19.11;13.88;101137.72;4955453;29;20102;-58
2022/05/10 10:08:49;;;;;;;21.25;3.28;;;;;;;19.05;13.83;101127.97;4955286;29;20086;-58
2022/05/10 10:11:22;;;;;;;28.35;4.13;;;;;;;18.97;13.99;101132.25;4955297;29;20065;-60
2022/05/10 10:14:01;;;;;;;20.02;3.20;;;;;;;19.00;14.37;101132.44;4955229;29;20121;-59
2022/05/10 10:17:02;;;;;;;14.52;2.78;;;;;;;19.05;14.72;101144.50;4954966;29;20043;-59
2022/05/10 10:19:40;;;;;;;11.82;2.40;;;;;;;19.16;15.17;101145.84;4895238;29;20051;-58
2022/05/10 10:22:22;;;;;;;16.42;3.08;;;;;;;19.28;14.40;101143.38;4935955;29;20494;-58
2022/05/10 10:25:06;;;;;;;20.48;3.60;;;;;;;19.21;14.89;101137.47;4935945;29;20537;-58
2022/05/10 10:27:42;;;;;;;17.80;2.95;;;;;;;19.16;14.70;101146.66;4935832;29;20066;-59
2022/05/10 10:30:25;;;;;;;16.45;2.67;;;;;;;19.31;15.03;101146.31;4935846;29;20042;-58
2022/05/10 10:33:00;;;;;;;9.32;2.63;;;;;;;19.16;15.19;101146.66;4935808;29;20036;-59
2022/05/10 10:35:37;;;;;;;7.43;1.30;;;;;;;19.25;15.14;101155.03;4935797;29;20032;-59
2022/05/10 10:38:30;;;;;;;6.60;1.35;;;;;;;19.17;14.96;101148.28;4935680;29;20434;-59
2022/05/10 10:41:08;;;;;;;9.27;1.52;;;;;;;19.18;14.89;101154.63;4897268;29;20055;-59
2022/05/10 10:43:44;;;;;;;4.65;1.40;;;;;;;19.24;14.75;101158.91;4935754;29;20032;-59
2022/05/10 10:46:26;;;;;;;9.75;1.55;;;;;;;19.39;14.52;101150.28;4935926;29;20043;-58
2022/05/10 10:49:03;;;;;;;6.32;1.50;;;;;;;19.32;15.03;101155.38;4967379;28;20035;-58
2022/05/10 10:51:34;;;;;;;11.38;2.15;;;;;;;19.14;15.26;101156.38;4974001;28;20082;-59
2022/05/10 10:54:02;;;;;;;8.40;2.13;;;;;;;19.08;15.14;101163.97;4974197;28;20023;-57
2022/05/10 10:56:43;;;;;;;10.23;1.80;;;;;;;19.02;15.54;101173.44;4974013;28;20142;-59
2022/05/10 10:59:34;;;;;;;10.23;1.60;;;;;;;18.86;15.71;101175.75;4974080;28;20397;-58
2022/05/10 11:02:06;;;;;;;10.88;1.52;;;;;;;18.76;15.94;101177.91;4973762;28;20189;-58
2022/05/10 11:05:10;;;;;;;4.22;1.40;;;;;;;18.84;15.27;101183.47;4973947;28;20038;-58
2022/05/10 11:07:54;;;;;;;12.70;1.83;;;;;;;18.78;14.90;101181.97;4973932;28;20034;-58
2022/05/10 11:10:27;;;;;;;13.25;1.77;;;;;;;18.62;15.20;101177.88;4973923;28;20035;-58
2022/05/10 11:13:20;;;;;;;7.95;1.50;;;;;;;18.48;15.36;101190.84;4973861;28;20039;-58
2022/05/10 11:16:13;;;;;;;10.48;1.67;;;;;;;18.60;15.33;101200.22;4973970;28;20090;-60
2022/05/10 11:19:07;;;;;;;12.48;1.70;;;;;;;18.74;14.83;101197.47;4933020;28;20051;-58
2022/05/10 11:21:46;;;;;;;8.70;1.80;;;;;;;18.80;14.87;101192.69;4954569;29;20027;-60
2022/05/10 11:24:40;;;;;;;9.48;1.52;;;;;;;18.71;15.07;101206.38;4937325;29;20037;-59
2022/05/10 11:27:23;;;;;;;10.10;1.42;;;;;;;18.74;15.04;101193.91;4919741;29;20055;-59
2022/05/10 11:30:19;;;;;;;8.55;1.25;;;;;;;18.81;14.91;101200.63;4954651;29;20122;-59
2022/05/10 11:33:04;;;;;;;6.75;1.33;;;;;;;18.75;15.03;101207.38;4954292;29;20134;-58
2022/05/10 11:35:57;;;;;;;5.27;1.10;;;;;;;18.50;15.40;101216.13;4956183;28;20039;-59
2022/05/10 11:38:42;;;;;;;8.32;1.67;;;;;;;18.08;16.54;101220.75;4957908;29;20262;-59
2022/05/10 11:41:38;;;;;;;4.72;1.20;;;;;;;17.86;17.53;101220.63;4957835;29;20039;-59
2022/05/10 11:44:34;;;;;;;6.15;1.40;;;;;;;17.81;17.60;101218.78;4957962;29;20062;-59
2022/05/10 11:47:10;;;;;;;4.28;0.93;;;;;;;17.86;17.15;101218.69;4957989;29;20031;-59
2022/05/10 11:50:13;;;;;;;4.38;1.08;;;;;;;17.92;16.50;101228.47;4975246;28;20034;-58
2022/05/10 11:53:13;;;;;;;4.20;1.20;;;;;;;17.94;16.16;101219.91;4977168;28;20031;-59
2022/05/10 11:55:56;;;;;;;3.95;1.25;;;;;;;17.95;16.17;101222.34;4976845;28;20038;-59
2022/05/10 11:58:25;;;;;;;2.30;0.85;;;;;;;18.05;15.46;101219.44;4976864;28;20043;-58
2022/05/10 12:00:55;;;;;;;3.00;1.00;;;;;;;18.09;15.22;101222.41;4976449;28;20050;-59